Nearby METAR Reports

 

KIMT - Iron Mountain, Michigan, USA
Distance from station: 0 29mi, 47km
Updated: Wed, 21-Apr-2021 10:54am CDT
Overcast
Overcast
 Wind from varies
Wind: varies 6 mph , 9 km/h
Temperature: 36°F , 2°C
Wind Chill: 31°F , -1°C
Dew Point: 9°F , -13°C
Humidity: 32%
Barometer: 30.07 inHg , 1018.3 hPa
Clouds: Overcast
Visibility: 10 miles , 16 km
Cloud details: Overcast 6000 ft
2021/04/21 15:54 KIMT 211554Z AUTO VRB05KT 10SM OVC060 02/M13 A3007 RMK AO2 SLP197 T00171128
KMNM - Menominee, Michigan, USA
Distance from station: SE 31mi, 51km
Updated: Wed, 21-Apr-2021 10:56am CDT
Mostly cloudy
Mostly cloudy
 Wind from N
Wind: N 9 mph , 15 km/h
Temperature: 37°F , 3°C
Wind Chill: 30°F , -1°C
Dew Point: 12°F , -11°C
Humidity: 35%
Barometer: 30.12 inHg , 1020 hPa
Clouds: Mostly cloudy
Visibility: 10 miles , 16 km
Cloud details: Mostly cloudy 6000 ft
2021/04/21 15:56 KMNM 211556Z AUTO 01008KT 10SM BKN060 03/M11 A3012 RMK AO2 SLP205 T00281111 $
 
KOCQ - Oconto, Wisconsin, USA
Distance from station: SSE 38mi, 61km
Updated: Wed, 21-Apr-2021 11:35am CDT
Partly cloudy
Partly cloudy
 Wind from NW
Wind: NW 7 mph , 11 km/h
Temperature: 37°F , 3°C
Wind Chill: 32°F , 0°C
Dew Point: 12°F , -11°C
Humidity: 35%
Barometer: 30.11 inHg , 1019.6 hPa
Clouds: Partly cloudy
Visibility: 10 miles , 16 km
Cloud details: Partly cloudy 5500 ft
2021/04/21 16:35 KOCQ 211635Z AUTO 32006KT 10SM SCT055 03/M11 A3011 RMK AO1 T00341115
KEZS - Shawano Muni, Wisconsin, USA
Distance from station: SSW 48mi, 77km
Updated: Wed, 21-Apr-2021 11:55am CDT
Mostly cloudy
Mostly cloudy
 Wind from W
Wind: W 9 mph , 15 km/h
Temperature: 41°F , 5°C
Wind Chill: 35°F , 2°C
Dew Point: 16°F , -9°C
Humidity: 36%
Barometer: 30.09 inHg , 1019 hPa
Clouds: Mostly cloudy
Visibility: 10 miles , 16 km
Cloud details: Mostly cloudy 5000 ft
2021/04/21 16:55 KEZS 211655Z AUTO 26008KT 10SM BKN050 05/M09 A3009 RMK AO2 T00511092
 
KAIG - Antigo/Langlade, Wisconsin, USA
Distance from station: WSW 51mi, 82km
Updated: Wed, 21-Apr-2021 11:35am CDT
Mostly cloudy
Mostly cloudy
 Wind from WNW
Wind: WNW 7 mph , 11 km/h
Temperature: 32°F , 0°C
Wind Chill: 25°F , -4°C
Dew Point: 18°F , -8°C
Humidity: 55%
Barometer: 30.08 inHg , 1018.6 hPa
Clouds: Mostly cloudy
Visibility: 10 miles , 16 km
Cloud details: Partly cloudy 3000 ft
Partly cloudy 3900 ft
Mostly cloudy 6500 ft
2021/04/21 16:35 KAIG 211635Z AUTO 29006KT 10SM SCT030 SCT039 BKN065 00/M08 A3008 RMK AO2 T00021078
KSUE - Sturgeon Bay, Wisconsin, USA
Distance from station: SE 51mi, 82km
Updated: Wed, 21-Apr-2021 10:56am CDT
Clear
Clear
 Wind from N
Wind: N 12 mph , 19 km/h
Temperature: 34°F , 1°C
Wind Chill: 25°F , -4°C
Dew Point: 14°F , -10°C
Humidity: 44%
Barometer: 30.13 inHg , 1020.3 hPa
Clouds: Clear
Visibility: 10 miles , 16 km
2021/04/21 15:56 KSUE 211556Z AUTO 36010KT 10SM CLR 01/M10 A3013 RMK AO2 SLP209 T00111100 FZRANO
 
KESC - Escanaba, Michigan, USA
Distance from station: ENE 56mi, 90km
Updated: Wed, 21-Apr-2021 10:56am CDT
Overcast
Overcast
 Wind from NNW
Wind: NNW 8 mph , 13 km/h
Temperature: 34°F , 1°C
Wind Chill: 27°F , -3°C
Dew Point: 16°F , -9°C
Humidity: 48%
Clouds: Overcast
Visibility: 10 miles , 16 km
Cloud details: Mostly cloudy 4400 ft
Overcast 7000 ft
2021/04/21 15:56 KESC 211556Z AUTO 34007KT 300V360 10SM BKN044 OVC070 01/M09 RMK AO2 SLPNO T00061089 FZRANO $
KCLI - Clintonville, Wisconsin, USA
Distance from station: SSW 62mi, 99km
Updated: Wed, 21-Apr-2021 11:35am CDT
Mostly cloudy
Mostly cloudy
 Wind from SW
Wind: SW 5 mph , 7 km/h
Temperature: 37°F , 3°C
Wind Chill: 33°F , 1°C
Dew Point: 23°F , -5°C
Humidity: 56%
Barometer: 30.11 inHg , 1019.6 hPa
Clouds: Mostly cloudy
Visibility: 10 miles , 16 km
Cloud details: Partly cloudy 2500 ft
Mostly cloudy 3000 ft
Mostly cloudy 8000 ft
2021/04/21 16:35 KCLI 211635Z AUTO 23004KT 10SM SCT025 BKN030 BKN080 03/M05 A3011 RMK AO2 T00291047
 
KGRB - Ashwaubenon, Wisconsin, USA
Distance from station: S 63mi, 102km
Updated: Wed, 21-Apr-2021 10:53am CDT
Clear
Clear
 Wind from NNW
Wind: NNW 8 mph , 13 km/h
Temperature: 37°F , 3°C
Wind Chill: 31°F , -1°C
Dew Point: 18°F , -8°C
Humidity: 45%
Barometer: 30.12 inHg , 1020 hPa
Clouds: Clear
Visibility: 10 miles , 16 km
2021/04/21 15:53 KGRB 211553Z 33007KT 10SM CLR 03/M08 A3012 RMK AO2 SLP207 T00331083
KEGV - Eagle River, Wisconsin, USA
Distance from station: NW 66mi, 107km
Updated: Wed, 21-Apr-2021 11:35am CDT
Overcast
Overcast
 Wind from WSW
Wind: WSW 3 mph , 6 km/h
Temperature: 32°F , 0°C
Dew Point: 21°F , -6°C
Humidity: 64%
Barometer: 30.06 inHg , 1017.9 hPa
Clouds: Overcast
Visibility: 10 miles , 16 km
Cloud details: Partly cloudy 1200 ft
Mostly cloudy 2200 ft
Overcast 3400 ft
2021/04/21 16:35 KEGV 211635Z AUTO 25003KT 10SM SCT012 BKN022 OVC034 00/M06 A3006 RMK AO2 T10051056
 
KRHI - Rhinelander, Wisconsin, USA
Distance from station: WNW 68mi, 109km
Updated: Wed, 21-Apr-2021 10:53am CDT
Light snow, Overcast
Light snow, Overcast
 
Temperature: 32°F , 0°C
Dew Point: 18°F , -8°C
Humidity: 55%
Barometer: 30.07 inHg , 1018.3 hPa
Summary: Light Snow
Clouds: Overcast
Visibility: 9 miles , 14 km
Cloud details: Mostly cloudy 3300 ft
Overcast 4300 ft
2021/04/21 15:53 KRHI 211553Z AUTO 9SM -SN BKN033 OVC043 00/M08 A3007 RMK AO2 SNB44 SLP202 P0000 T00001078
KLNL - Land O Lakes, Wisconsin, USA
Distance from station: NW 74mi, 119km
Updated: Wed, 21-Apr-2021 11:35am CDT
Light snow, Overcast
Light snow, Overcast
 Wind from WSW
Wind: WSW 6 mph , 9 km/h
Temperature: 32°F , 0°C
Wind Chill: 26°F , -3°C
Dew Point: 21°F , -6°C
Humidity: 64%
Barometer: 30.07 inHg , 1018.3 hPa
Summary: Light Snow
Clouds: Overcast
Visibility: 7 miles , 11 km
Cloud details: Partly cloudy 1100 ft
Mostly cloudy 1900 ft
Overcast 2700 ft
2021/04/21 16:35 KLNL 211635Z AUTO 25005KT 7SM -SN SCT011 BKN019 OVC027 00/M06 A3007 RMK AO2 T00001057
 
KSAW - Gwinn/Sawyer, Michigan, USA
Distance from station: NNE 74mi, 120km
Updated: Wed, 21-Apr-2021 11:47am CDT
Overcast
Overcast
 Wind from N
Wind: N 9 mph , 15 km/h
Temperature: 32°F , 0°C
Wind Chill: 24°F , -4°C
Dew Point: 12°F , -11°C
Humidity: 44%
Barometer: 30.05 inHg , 1017.6 hPa
Clouds: Overcast
Visibility: 10 miles , 16 km
Cloud details: Mostly cloudy 4700 ft
Overcast 5500 ft
2021/04/21 16:47 KSAW 211647Z 35008KT 10SM BKN047 OVC055 00/M11 A3005